sensor_id;sensor_type;location;lat;lon;timestamp;P1;durP1;ratioP1;P2;durP2;ratioP2
62006;SDS011;47963;53.008;6.754;2022-11-20T00:02:15;22.33;;;17.92;;
62006;SDS011;47963;53.008;6.754;2022-11-20T00:04:41;20.38;;;17.65;;
62006;SDS011;47963;53.008;6.754;2022-11-20T00:07:07;21.90;;;17.55;;
62006;SDS011;47963;53.008;6.754;2022-11-20T00:09:32;20.80;;;17.17;;
62006;SDS011;47963;53.008;6.754;2022-11-20T00:11:58;20.40;;;17.95;;
62006;SDS011;47963;53.008;6.754;2022-11-20T00:14:23;20.75;;;18.08;;
62006;SDS011;47963;53.008;6.754;2022-11-20T00:16:49;20.80;;;18.02;;
62006;SDS011;47963;53.008;6.754;2022-11-20T00:19:15;20.52;;;17.58;;
62006;SDS011;47963;53.008;6.754;2022-11-20T00:21:40;20.35;;;17.73;;
62006;SDS011;47963;53.008;6.754;2022-11-20T00:24:07;20.38;;;17.25;;
62006;SDS011;47963;53.008;6.754;2022-11-20T00:26:35;20.80;;;18.02;;
62006;SDS011;47963;53.008;6.754;2022-11-20T00:29:01;23.13;;;19.00;;
62006;SDS011;47963;53.008;6.754;2022-11-20T00:31:27;20.42;;;17.65;;
62006;SDS011;47963;53.008;6.754;2022-11-20T00:33:54;22.60;;;18.00;;
62006;SDS011;47963;53.008;6.754;2022-11-20T00:36:20;22.27;;;18.75;;
62006;SDS011;47963;53.008;6.754;2022-11-20T00:38:51;23.17;;;19.52;;
62006;SDS011;47963;53.008;6.754;2022-11-20T00:41:17;23.50;;;20.40;;
62006;SDS011;47963;53.008;6.754;2022-11-20T00:43:43;21.73;;;18.60;;
62006;SDS011;47963;53.008;6.754;2022-11-20T00:46:13;21.08;;;17.92;;
62006;SDS011;47963;53.008;6.754;2022-11-20T00:48:40;20.65;;;18.15;;
62006;SDS011;47963;53.008;6.754;2022-11-20T00:51:07;20.83;;;18.17;;
62006;SDS011;47963;53.008;6.754;2022-11-20T00:53:32;21.20;;;18.30;;
62006;SDS011;47963;53.008;6.754;2022-11-20T00:55:59;21.90;;;18.40;;
62006;SDS011;47963;53.008;6.754;2022-11-20T00:58:36;22.33;;;19.08;;
62006;SDS011;47963;53.008;6.754;2022-11-20T01:01:04;23.67;;;19.27;;
62006;SDS011;47963;53.008;6.754;2022-11-20T01:03:35;21.05;;;18.75;;
62006;SDS011;47963;53.008;6.754;2022-11-20T01:06:04;22.35;;;18.30;;
62006;SDS011;47963;53.008;6.754;2022-11-20T01:08:38;21.13;;;18.40;;
62006;SDS011;47963;53.008;6.754;2022-11-20T01:11:04;21.95;;;18.73;;
62006;SDS011;47963;53.008;6.754;2022-11-20T01:13:32;22.40;;;18.92;;
62006;SDS011;47963;53.008;6.754;2022-11-20T01:16:11;22.50;;;19.67;;
62006;SDS011;47963;53.008;6.754;2022-11-20T01:18:41;22.13;;;18.55;;
62006;SDS011;47963;53.008;6.754;2022-11-20T01:21:10;21.80;;;19.00;;
62006;SDS011;47963;53.008;6.754;2022-11-20T01:23:38;21.83;;;19.13;;
62006;SDS011;47963;53.008;6.754;2022-11-20T01:26:08;22.63;;;19.25;;
62006;SDS011;47963;53.008;6.754;2022-11-20T01:28:38;21.05;;;18.10;;
62006;SDS011;47963;53.008;6.754;2022-11-20T01:33:44;21.38;;;18.50;;
62006;SDS011;47963;53.008;6.754;2022-11-20T01:36:11;20.50;;;18.23;;
62006;SDS011;47963;53.008;6.754;2022-11-20T01:38:38;21.23;;;18.38;;
62006;SDS011;47963;53.008;6.754;2022-11-20T01:41:04;21.42;;;18.30;;
62006;SDS011;47963;53.008;6.754;2022-11-20T01:43:30;22.83;;;18.35;;
62006;SDS011;47963;53.008;6.754;2022-11-20T01:46:04;22.00;;;19.05;;
62006;SDS011;47963;53.008;6.754;2022-11-20T01:48:57;21.88;;;18.75;;
62006;SDS011;47963;53.008;6.754;2022-11-20T01:51:41;21.05;;;18.05;;
62006;SDS011;47963;53.008;6.754;2022-11-20T01:54:12;20.48;;;18.20;;
62006;SDS011;47963;53.008;6.754;2022-11-20T01:56:48;22.58;;;19.30;;
62006;SDS011;47963;53.008;6.754;2022-11-20T01:59:18;22.90;;;19.48;;
62006;SDS011;47963;53.008;6.754;2022-11-20T02:01:45;21.90;;;18.90;;
62006;SDS011;47963;53.008;6.754;2022-11-20T02:04:11;22.75;;;19.77;;
62006;SDS011;47963;53.008;6.754;2022-11-20T02:06:46;24.15;;;19.35;;
62006;SDS011;47963;53.008;6.754;2022-11-20T02:09:15;23.02;;;20.45;;
62006;SDS011;47963;53.008;6.754;2022-11-20T02:11:41;22.83;;;19.60;;
62006;SDS011;47963;53.008;6.754;2022-11-20T02:14:07;23.08;;;20.33;;
62006;SDS011;47963;53.008;6.754;2022-11-20T02:16:34;23.23;;;20.48;;
62006;SDS011;47963;53.008;6.754;2022-11-20T02:19:06;23.63;;;21.10;;
62006;SDS011;47963;53.008;6.754;2022-11-20T02:21:44;22.52;;;20.10;;
62006;SDS011;47963;53.008;6.754;2022-11-20T02:24:25;23.88;;;21.00;;
62006;SDS011;47963;53.008;6.754;2022-11-20T02:32:25;25.85;;;21.50;;
62006;SDS011;47963;53.008;6.754;2022-11-20T02:34:56;25.55;;;22.75;;
62006;SDS011;47963;53.008;6.754;2022-11-20T02:37:22;24.73;;;22.02;;
62006;SDS011;47963;53.008;6.754;2022-11-20T02:39:51;26.33;;;22.88;;
62006;SDS011;47963;53.008;6.754;2022-11-20T02:42:17;26.35;;;23.30;;
62006;SDS011;47963;53.008;6.754;2022-11-20T02:44:43;25.75;;;22.67;;
62006;SDS011;47963;53.008;6.754;2022-11-20T02:47:08;25.23;;;22.52;;
62006;SDS011;47963;53.008;6.754;2022-11-20T02:49:34;25.15;;;22.45;;
62006;SDS011;47963;53.008;6.754;2022-11-20T02:52:00;25.02;;;21.58;;
62006;SDS011;47963;53.008;6.754;2022-11-20T02:54:26;24.92;;;22.20;;
62006;SDS011;47963;53.008;6.754;2022-11-20T02:56:52;26.00;;;22.73;;
62006;SDS011;47963;53.008;6.754;2022-11-20T02:59:17;25.73;;;22.30;;
62006;SDS011;47963;53.008;6.754;2022-11-20T03:01:43;26.48;;;23.30;;
62006;SDS011;47963;53.008;6.754;2022-11-20T03:04:09;26.40;;;22.73;;
62006;SDS011;47963;53.008;6.754;2022-11-20T03:06:34;24.80;;;21.55;;
62006;SDS011;47963;53.008;6.754;2022-11-20T03:09:00;24.48;;;20.88;;
62006;SDS011;47963;53.008;6.754;2022-11-20T03:11:26;24.38;;;21.77;;
62006;SDS011;47963;53.008;6.754;2022-11-20T03:13:51;25.45;;;22.27;;
62006;SDS011;47963;53.008;6.754;2022-11-20T03:16:18;23.58;;;20.67;;
62006;SDS011;47963;53.008;6.754;2022-11-20T03:18:45;25.42;;;21.90;;
62006;SDS011;47963;53.008;6.754;2022-11-20T03:21:12;24.75;;;22.05;;
62006;SDS011;47963;53.008;6.754;2022-11-20T03:23:38;24.48;;;21.58;;
62006;SDS011;47963;53.008;6.754;2022-11-20T03:26:12;22.65;;;20.08;;
62006;SDS011;47963;53.008;6.754;2022-11-20T03:28:40;25.40;;;21.77;;
62006;SDS011;47963;53.008;6.754;2022-11-20T03:31:07;23.05;;;20.60;;
62006;SDS011;47963;53.008;6.754;2022-11-20T03:33:35;24.77;;;21.50;;
62006;SDS011;47963;53.008;6.754;2022-11-20T03:36:05;24.77;;;21.17;;
62006;SDS011;47963;53.008;6.754;2022-11-20T03:38:33;25.00;;;20.95;;
62006;SDS011;47963;53.008;6.754;2022-11-20T03:41:04;24.80;;;20.90;;
62006;SDS011;47963;53.008;6.754;2022-11-20T03:43:32;23.90;;;21.02;;
62006;SDS011;47963;53.008;6.754;2022-11-20T03:45:58;23.45;;;20.95;;
62006;SDS011;47963;53.008;6.754;2022-11-20T03:48:24;24.63;;;21.50;;
62006;SDS011;47963;53.008;6.754;2022-11-20T03:50:51;25.73;;;21.80;;
62006;SDS011;47963;53.008;6.754;2022-11-20T03:53:17;26.05;;;21.75;;
62006;SDS011;47963;53.008;6.754;2022-11-20T03:55:43;24.95;;;21.10;;
62006;SDS011;47963;53.008;6.754;2022-11-20T03:58:09;25.85;;;21.98;;
62006;SDS011;47963;53.008;6.754;2022-11-20T04:00:35;24.48;;;21.33;;
62006;SDS011;47963;53.008;6.754;2022-11-20T04:03:01;23.90;;;21.30;;
62006;SDS011;47963;53.008;6.754;2022-11-20T04:05:27;25.00;;;21.63;;
62006;SDS011;47963;53.008;6.754;2022-11-20T04:07:53;23.92;;;21.33;;
62006;SDS011;47963;53.008;6.754;2022-11-20T04:10:19;24.95;;;22.02;;
62006;SDS011;47963;53.008;6.754;2022-11-20T04:12:45;25.02;;;22.00;;
62006;SDS011;47963;53.008;6.754;2022-11-20T04:15:10;23.73;;;20.27;;
62006;SDS011;47963;53.008;6.754;2022-11-20T04:17:36;22.02;;;19.55;;
62006;SDS011;47963;53.008;6.754;2022-11-20T04:20:02;23.77;;;19.90;;
62006;SDS011;47963;53.008;6.754;2022-11-20T04:22:28;23.10;;;20.55;;
62006;SDS011;47963;53.008;6.754;2022-11-20T04:24:53;21.70;;;19.02;;
62006;SDS011;47963;53.008;6.754;2022-11-20T04:27:19;23.77;;;19.60;;
62006;SDS011;47963;53.008;6.754;2022-11-20T04:29:44;21.27;;;18.58;;
62006;SDS011;47963;53.008;6.754;2022-11-20T04:32:10;23.00;;;18.52;;
62006;SDS011;47963;53.008;6.754;2022-11-20T04:34:36;21.92;;;18.80;;
62006;SDS011;47963;53.008;6.754;2022-11-20T04:37:01;19.83;;;17.70;;
62006;SDS011;47963;53.008;6.754;2022-11-20T04:39:27;21.60;;;18.20;;
62006;SDS011;47963;53.008;6.754;2022-11-20T04:41:53;21.80;;;18.38;;
62006;SDS011;47963;53.008;6.754;2022-11-20T04:44:38;20.50;;;18.38;;
62006;SDS011;47963;53.008;6.754;2022-11-20T04:47:04;20.58;;;18.15;;
62006;SDS011;47963;53.008;6.754;2022-11-20T04:49:30;19.77;;;17.13;;
62006;SDS011;47963;53.008;6.754;2022-11-20T04:51:56;21.17;;;18.00;;
62006;SDS011;47963;53.008;6.754;2022-11-20T04:54:22;20.85;;;18.02;;
62006;SDS011;47963;53.008;6.754;2022-11-20T04:56:48;19.92;;;17.73;;
62006;SDS011;47963;53.008;6.754;2022-11-20T04:59:15;20.15;;;17.70;;
62006;SDS011;47963;53.008;6.754;2022-11-20T05:01:41;21.48;;;18.05;;
62006;SDS011;47963;53.008;6.754;2022-11-20T05:04:07;19.65;;;16.92;;
62006;SDS011;47963;53.008;6.754;2022-11-20T05:06:33;20.60;;;17.35;;
62006;SDS011;47963;53.008;6.754;2022-11-20T05:08:58;19.90;;;17.48;;
62006;SDS011;47963;53.008;6.754;2022-11-20T05:11:24;20.23;;;17.02;;
62006;SDS011;47963;53.008;6.754;2022-11-20T05:13:50;18.90;;;15.68;;
62006;SDS011;47963;53.008;6.754;2022-11-20T05:16:20;19.42;;;16.98;;
62006;SDS011;47963;53.008;6.754;2022-11-20T05:18:48;19.63;;;16.13;;
62006;SDS011;47963;53.008;6.754;2022-11-20T05:21:14;20.15;;;16.88;;
62006;SDS011;47963;53.008;6.754;2022-11-20T05:23:40;19.60;;;16.42;;
62006;SDS011;47963;53.008;6.754;2022-11-20T05:26:07;20.50;;;17.00;;
62006;SDS011;47963;53.008;6.754;2022-11-20T05:28:38;18.85;;;15.80;;
62006;SDS011;47963;53.008;6.754;2022-11-20T05:31:25;20.10;;;16.70;;
62006;SDS011;47963;53.008;6.754;2022-11-20T05:33:50;20.77;;;16.67;;
62006;SDS011;47963;53.008;6.754;2022-11-20T05:36:16;19.50;;;16.73;;
62006;SDS011;47963;53.008;6.754;2022-11-20T05:38:42;20.20;;;16.60;;
62006;SDS011;47963;53.008;6.754;2022-11-20T05:41:09;20.70;;;17.08;;
62006;SDS011;47963;53.008;6.754;2022-11-20T05:43:40;20.40;;;17.85;;
62006;SDS011;47963;53.008;6.754;2022-11-20T05:46:08;20.60;;;18.10;;
62006;SDS011;47963;53.008;6.754;2022-11-20T05:48:34;19.77;;;17.67;;
62006;SDS011;47963;53.008;6.754;2022-11-20T05:51:02;20.77;;;17.27;;
62006;SDS011;47963;53.008;6.754;2022-11-20T05:53:30;19.05;;;16.45;;
62006;SDS011;47963;53.008;6.754;2022-11-20T05:55:58;20.35;;;16.73;;
62006;SDS011;47963;53.008;6.754;2022-11-20T05:58:25;20.70;;;16.95;;
62006;SDS011;47963;53.008;6.754;2022-11-20T06:00:51;19.15;;;15.93;;
62006;SDS011;47963;53.008;6.754;2022-11-20T06:03:17;18.65;;;16.58;;
62006;SDS011;47963;53.008;6.754;2022-11-20T06:05:43;19.35;;;16.05;;
62006;SDS011;47963;53.008;6.754;2022-11-20T06:08:08;19.48;;;16.40;;
62006;SDS011;47963;53.008;6.754;2022-11-20T06:10:34;18.60;;;15.75;;
62006;SDS011;47963;53.008;6.754;2022-11-20T06:12:59;20.38;;;16.52;;
62006;SDS011;47963;53.008;6.754;2022-11-20T06:15:25;19.08;;;16.70;;
62006;SDS011;47963;53.008;6.754;2022-11-20T06:17:54;18.27;;;15.85;;
62006;SDS011;47963;53.008;6.754;2022-11-20T06:20:21;19.52;;;17.00;;
62006;SDS011;47963;53.008;6.754;2022-11-20T06:22:46;19.13;;;16.27;;
62006;SDS011;47963;53.008;6.754;2022-11-20T06:25:12;19.00;;;16.98;;
62006;SDS011;47963;53.008;6.754;2022-11-20T06:27:38;19.60;;;16.10;;
62006;SDS011;47963;53.008;6.754;2022-11-20T06:30:04;18.95;;;16.48;;
62006;SDS011;47963;53.008;6.754;2022-11-20T06:32:30;19.92;;;16.08;;
62006;SDS011;47963;53.008;6.754;2022-11-20T06:34:56;18.70;;;15.90;;
62006;SDS011;47963;53.008;6.754;2022-11-20T06:37:22;19.33;;;16.17;;
62006;SDS011;47963;53.008;6.754;2022-11-20T06:39:48;19.90;;;15.93;;
62006;SDS011;47963;53.008;6.754;2022-11-20T06:42:14;18.13;;;15.82;;
62006;SDS011;47963;53.008;6.754;2022-11-20T06:44:39;17.95;;;15.18;;
62006;SDS011;47963;53.008;6.754;2022-11-20T06:47:05;19.60;;;15.98;;
62006;SDS011;47963;53.008;6.754;2022-11-20T06:49:31;19.75;;;16.77;;
62006;SDS011;47963;53.008;6.754;2022-11-20T06:51:56;20.02;;;17.10;;
62006;SDS011;47963;53.008;6.754;2022-11-20T06:54:22;17.77;;;14.65;;
62006;SDS011;47963;53.008;6.754;2022-11-20T06:56:48;16.73;;;13.82;;
62006;SDS011;47963;53.008;6.754;2022-11-20T06:59:14;16.33;;;13.15;;
62006;SDS011;47963;53.008;6.754;2022-11-20T07:01:39;16.13;;;13.27;;
62006;SDS011;47963;53.008;6.754;2022-11-20T07:04:05;16.40;;;14.13;;
62006;SDS011;47963;53.008;6.754;2022-11-20T07:06:31;16.23;;;13.93;;
62006;SDS011;47963;53.008;6.754;2022-11-20T07:08:57;16.08;;;13.73;;
62006;SDS011;47963;53.008;6.754;2022-11-20T07:11:23;17.55;;;14.32;;
62006;SDS011;47963;53.008;6.754;2022-11-20T07:13:48;15.68;;;13.35;;
62006;SDS011;47963;53.008;6.754;2022-11-20T07:16:14;16.88;;;13.75;;
62006;SDS011;47963;53.008;6.754;2022-11-20T07:18:40;16.35;;;13.68;;
62006;SDS011;47963;53.008;6.754;2022-11-20T07:21:07;19.27;;;16.10;;
62006;SDS011;47963;53.008;6.754;2022-11-20T07:23:33;21.98;;;18.92;;
62006;SDS011;47963;53.008;6.754;2022-11-20T07:26:03;20.42;;;15.95;;
62006;SDS011;47963;53.008;6.754;2022-11-20T07:28:30;16.80;;;14.68;;
62006;SDS011;47963;53.008;6.754;2022-11-20T07:30:55;18.38;;;14.30;;
62006;SDS011;47963;53.008;6.754;2022-11-20T07:33:21;16.50;;;14.13;;
62006;SDS011;47963;53.008;6.754;2022-11-20T07:35:46;17.52;;;13.85;;
62006;SDS011;47963;53.008;6.754;2022-11-20T07:38:12;16.52;;;13.65;;
62006;SDS011;47963;53.008;6.754;2022-11-20T07:40:38;16.85;;;13.98;;
62006;SDS011;47963;53.008;6.754;2022-11-20T07:43:04;16.98;;;13.65;;
62006;SDS011;47963;53.008;6.754;2022-11-20T07:45:29;15.68;;;13.43;;
62006;SDS011;47963;53.008;6.754;2022-11-20T07:47:55;16.17;;;13.90;;
62006;SDS011;47963;53.008;6.754;2022-11-20T07:50:20;17.48;;;13.55;;
62006;SDS011;47963;53.008;6.754;2022-11-20T07:52:46;15.80;;;13.45;;
62006;SDS011;47963;53.008;6.754;2022-11-20T07:55:12;16.02;;;13.82;;
62006;SDS011;47963;53.008;6.754;2022-11-20T07:57:38;16.77;;;13.90;;
62006;SDS011;47963;53.008;6.754;2022-11-20T08:00:04;16.38;;;12.98;;
62006;SDS011;47963;53.008;6.754;2022-11-20T08:02:32;17.25;;;12.80;;
62006;SDS011;47963;53.008;6.754;2022-11-20T08:04:57;15.52;;;13.68;;
62006;SDS011;47963;53.008;6.754;2022-11-20T08:07:23;16.63;;;13.65;;
62006;SDS011;47963;53.008;6.754;2022-11-20T08:09:49;15.40;;;13.05;;
62006;SDS011;47963;53.008;6.754;2022-11-20T08:12:16;16.88;;;13.80;;
62006;SDS011;47963;53.008;6.754;2022-11-20T08:15:03;16.33;;;13.88;;
62006;SDS011;47963;53.008;6.754;2022-11-20T08:17:29;15.43;;;13.20;;
62006;SDS011;47963;53.008;6.754;2022-11-20T08:19:55;15.85;;;12.98;;
62006;SDS011;47963;53.008;6.754;2022-11-20T08:22:21;16.65;;;13.57;;
62006;SDS011;47963;53.008;6.754;2022-11-20T08:24:47;14.68;;;12.75;;
62006;SDS011;47963;53.008;6.754;2022-11-20T08:27:13;15.50;;;13.05;;
62006;SDS011;47963;53.008;6.754;2022-11-20T08:29:39;16.25;;;13.10;;
62006;SDS011;47963;53.008;6.754;2022-11-20T08:32:04;16.73;;;13.35;;
62006;SDS011;47963;53.008;6.754;2022-11-20T08:34:30;15.50;;;12.93;;
62006;SDS011;47963;53.008;6.754;2022-11-20T08:36:55;16.38;;;13.88;;
62006;SDS011;47963;53.008;6.754;2022-11-20T08:39:21;16.15;;;13.65;;
62006;SDS011;47963;53.008;6.754;2022-11-20T08:41:47;17.55;;;14.27;;
62006;SDS011;47963;53.008;6.754;2022-11-20T08:44:12;17.48;;;14.02;;
62006;SDS011;47963;53.008;6.754;2022-11-20T08:46:39;17.15;;;14.18;;
62006;SDS011;47963;53.008;6.754;2022-11-20T08:49:11;15.93;;;13.40;;
62006;SDS011;47963;53.008;6.754;2022-11-20T08:51:37;17.30;;;13.68;;
62006;SDS011;47963;53.008;6.754;2022-11-20T08:54:04;15.65;;;13.40;;
62006;SDS011;47963;53.008;6.754;2022-11-20T08:56:30;17.38;;;14.02;;
62006;SDS011;47963;53.008;6.754;2022-11-20T08:58:56;18.15;;;14.10;;
62006;SDS011;47963;53.008;6.754;2022-11-20T09:01:24;17.10;;;14.02;;
62006;SDS011;47963;53.008;6.754;2022-11-20T09:03:50;15.80;;;12.73;;
62006;SDS011;47963;53.008;6.754;2022-11-20T09:06:15;15.00;;;12.68;;
62006;SDS011;47963;53.008;6.754;2022-11-20T09:08:41;15.38;;;12.60;;
62006;SDS011;47963;53.008;6.754;2022-11-20T09:11:07;15.13;;;12.65;;
62006;SDS011;47963;53.008;6.754;2022-11-20T09:13:34;16.52;;;12.65;;
62006;SDS011;47963;53.008;6.754;2022-11-20T09:16:09;14.25;;;11.80;;
62006;SDS011;47963;53.008;6.754;2022-11-20T09:18:35;18.95;;;12.80;;
62006;SDS011;47963;53.008;6.754;2022-11-20T09:21:03;17.23;;;12.43;;
62006;SDS011;47963;53.008;6.754;2022-11-20T09:23:31;15.82;;;12.07;;
62006;SDS011;47963;53.008;6.754;2022-11-20T09:26:01;14.77;;;12.10;;
62006;SDS011;47963;53.008;6.754;2022-11-20T09:28:28;14.48;;;12.23;;
62006;SDS011;47963;53.008;6.754;2022-11-20T09:30:54;14.55;;;12.02;;
62006;SDS011;47963;53.008;6.754;2022-11-20T09:33:20;15.00;;;11.75;;
62006;SDS011;47963;53.008;6.754;2022-11-20T09:35:46;15.45;;;13.45;;
62006;SDS011;47963;53.008;6.754;2022-11-20T09:38:11;14.85;;;12.15;;
62006;SDS011;47963;53.008;6.754;2022-11-20T09:40:40;15.43;;;12.60;;
62006;SDS011;47963;53.008;6.754;2022-11-20T09:46:05;15.00;;;12.02;;
62006;SDS011;47963;53.008;6.754;2022-11-20T09:49:00;13.93;;;11.88;;
62006;SDS011;47963;53.008;6.754;2022-11-20T09:51:34;14.52;;;11.40;;
62006;SDS011;47963;53.008;6.754;2022-11-20T09:56:50;14.30;;;11.38;;
62006;SDS011;47963;53.008;6.754;2022-11-20T09:59:29;13.65;;;11.73;;
62006;SDS011;47963;53.008;6.754;2022-11-20T10:02:08;15.35;;;11.88;;
62006;SDS011;47963;53.008;6.754;2022-11-20T10:04:47;14.77;;;12.23;;
62006;SDS011;47963;53.008;6.754;2022-11-20T10:07:37;14.40;;;11.75;;
62006;SDS011;47963;53.008;6.754;2022-11-20T10:10:15;15.90;;;11.90;;
62006;SDS011;47963;53.008;6.754;2022-11-20T10:12:55;13.20;;;10.68;;
62006;SDS011;47963;53.008;6.754;2022-11-20T10:21:41;14.25;;;10.90;;
62006;SDS011;47963;53.008;6.754;2022-11-20T10:29:17;12.93;;;10.60;;
62006;SDS011;47963;53.008;6.754;2022-11-20T10:31:56;13.68;;;10.73;;
62006;SDS011;47963;53.008;6.754;2022-11-20T10:34:28;12.13;;;10.00;;
62006;SDS011;47963;53.008;6.754;2022-11-20T10:37:09;12.95;;;9.90;;
62006;SDS011;47963;53.008;6.754;2022-11-20T10:39:42;13.10;;;10.15;;
62006;SDS011;47963;53.008;6.754;2022-11-20T10:42:23;13.98;;;10.77;;
62006;SDS011;47963;53.008;6.754;2022-11-20T10:45:21;12.88;;;9.57;;
62006;SDS011;47963;53.008;6.754;2022-11-20T10:50:37;12.32;;;9.45;;
62006;SDS011;47963;53.008;6.754;2022-11-20T10:56:16;12.55;;;9.65;;
62006;SDS011;47963;53.008;6.754;2022-11-20T11:01:41;12.68;;;9.60;;
62006;SDS011;47963;53.008;6.754;2022-11-20T11:04:43;12.70;;;9.55;;
62006;SDS011;47963;53.008;6.754;2022-11-20T11:07:15;14.55;;;9.13;;
62006;SDS011;47963;53.008;6.754;2022-11-20T11:09:55;11.77;;;8.85;;
62006;SDS011;47963;53.008;6.754;2022-11-20T11:12:24;11.65;;;8.02;;
62006;SDS011;47963;53.008;6.754;2022-11-20T11:14:52;11.70;;;8.52;;
62006;SDS011;47963;53.008;6.754;2022-11-20T11:17:29;10.40;;;7.97;;
62006;SDS011;47963;53.008;6.754;2022-11-20T11:20:00;11.70;;;8.50;;
62006;SDS011;47963;53.008;6.754;2022-11-20T11:22:42;11.63;;;8.18;;
62006;SDS011;47963;53.008;6.754;2022-11-20T11:27:53;10.48;;;6.95;;
62006;SDS011;47963;53.008;6.754;2022-11-20T11:30:21;9.43;;;6.63;;
62006;SDS011;47963;53.008;6.754;2022-11-20T11:32:48;9.85;;;6.88;;
62006;SDS011;47963;53.008;6.754;2022-11-20T11:35:21;10.48;;;7.80;;
62006;SDS011;47963;53.008;6.754;2022-11-20T11:37:52;10.90;;;7.95;;
62006;SDS011;47963;53.008;6.754;2022-11-20T11:40:26;10.38;;;7.82;;
62006;SDS011;47963;53.008;6.754;2022-11-20T11:42:56;11.02;;;8.32;;
62006;SDS011;47963;53.008;6.754;2022-11-20T11:45:24;10.82;;;7.78;;
62006;SDS011;47963;53.008;6.754;2022-11-20T11:47:51;10.82;;;7.85;;
62006;SDS011;47963;53.008;6.754;2022-11-20T11:50:20;10.32;;;6.88;;
62006;SDS011;47963;53.008;6.754;2022-11-20T11:52:54;10.00;;;6.78;;
62006;SDS011;47963;53.008;6.754;2022-11-20T11:58:14;10.95;;;6.95;;
62006;SDS011;47963;53.008;6.754;2022-11-20T12:00:45;11.68;;;7.90;;
62006;SDS011;47963;53.008;6.754;2022-11-20T12:03:19;10.77;;;7.88;;
62006;SDS011;47963;53.008;6.754;2022-11-20T12:05:56;11.07;;;8.10;;
62006;SDS011;47963;53.008;6.754;2022-11-20T12:11:15;10.93;;;8.05;;
62006;SDS011;47963;53.008;6.754;2022-11-20T12:13:58;9.40;;;6.95;;
62006;SDS011;47963;53.008;6.754;2022-11-20T12:16:49;9.85;;;6.80;;
62006;SDS011;47963;53.008;6.754;2022-11-20T12:19:16;8.90;;;6.22;;
62006;SDS011;47963;53.008;6.754;2022-11-20T12:29:50;10.20;;;7.28;;
62006;SDS011;47963;53.008;6.754;2022-11-20T12:35:23;11.38;;;8.52;;
62006;SDS011;47963;53.008;6.754;2022-11-20T12:38:23;11.70;;;8.27;;
62006;SDS011;47963;53.008;6.754;2022-11-20T12:50:13;11.32;;;8.75;;
62006;SDS011;47963;53.008;6.754;2022-11-20T12:53:31;12.48;;;9.00;;
62006;SDS011;47963;53.008;6.754;2022-11-20T12:59:00;11.68;;;9.07;;
62006;SDS011;47963;53.008;6.754;2022-11-20T13:07:28;12.27;;;9.40;;
62006;SDS011;47963;53.008;6.754;2022-11-20T13:09:55;12.55;;;9.63;;
62006;SDS011;47963;53.008;6.754;2022-11-20T13:12:31;12.27;;;9.43;;
62006;SDS011;47963;53.008;6.754;2022-11-20T13:17:45;20.77;;;14.40;;
62006;SDS011;47963;53.008;6.754;2022-11-20T13:20:14;17.05;;;13.20;;
62006;SDS011;47963;53.008;6.754;2022-11-20T13:22:43;17.70;;;13.02;;
62006;SDS011;47963;53.008;6.754;2022-11-20T13:25:09;13.32;;;10.60;;
62006;SDS011;47963;53.008;6.754;2022-11-20T13:27:35;21.55;;;16.15;;
62006;SDS011;47963;53.008;6.754;2022-11-20T13:30:14;17.02;;;13.38;;
62006;SDS011;47963;53.008;6.754;2022-11-20T13:35:31;18.77;;;13.80;;
62006;SDS011;47963;53.008;6.754;2022-11-20T13:38:07;26.55;;;17.60;;
62006;SDS011;47963;53.008;6.754;2022-11-20T13:40:38;20.33;;;14.00;;
62006;SDS011;47963;53.008;6.754;2022-11-20T13:43:33;24.33;;;16.77;;
62006;SDS011;47963;53.008;6.754;2022-11-20T13:46:03;26.75;;;17.73;;
62006;SDS011;47963;53.008;6.754;2022-11-20T13:48:31;28.00;;;19.40;;
62006;SDS011;47963;53.008;6.754;2022-11-20T13:51:04;18.75;;;13.95;;
62006;SDS011;47963;53.008;6.754;2022-11-20T13:56:29;23.58;;;18.23;;
62006;SDS011;47963;53.008;6.754;2022-11-20T14:01:57;16.60;;;13.15;;
62006;SDS011;47963;53.008;6.754;2022-11-20T14:04:27;14.45;;;11.90;;
62006;SDS011;47963;53.008;6.754;2022-11-20T14:06:57;17.60;;;14.10;;
62006;SDS011;47963;53.008;6.754;2022-11-20T14:09:28;16.77;;;12.95;;
62006;SDS011;47963;53.008;6.754;2022-11-20T14:11:55;16.20;;;13.68;;
62006;SDS011;47963;53.008;6.754;2022-11-20T14:14:22;14.45;;;12.15;;
62006;SDS011;47963;53.008;6.754;2022-11-20T14:16:51;12.50;;;10.35;;
62006;SDS011;47963;53.008;6.754;2022-11-20T14:21:51;12.82;;;10.20;;
62006;SDS011;47963;53.008;6.754;2022-11-20T14:24:19;13.52;;;10.52;;
62006;SDS011;47963;53.008;6.754;2022-11-20T14:26:46;12.77;;;10.43;;
62006;SDS011;47963;53.008;6.754;2022-11-20T14:29:16;12.35;;;10.10;;
62006;SDS011;47963;53.008;6.754;2022-11-20T14:31:42;13.00;;;10.63;;
62006;SDS011;47963;53.008;6.754;2022-11-20T14:34:13;13.13;;;10.68;;
62006;SDS011;47963;53.008;6.754;2022-11-20T14:36:43;13.52;;;10.57;;
62006;SDS011;47963;53.008;6.754;2022-11-20T14:39:24;12.70;;;10.10;;
62006;SDS011;47963;53.008;6.754;2022-11-20T14:41:55;13.20;;;10.50;;
62006;SDS011;47963;53.008;6.754;2022-11-20T14:44:23;13.02;;;10.40;;
62006;SDS011;47963;53.008;6.754;2022-11-20T14:46:52;13.32;;;10.70;;
62006;SDS011;47963;53.008;6.754;2022-11-20T14:49:18;13.10;;;10.50;;
62006;SDS011;47963;53.008;6.754;2022-11-20T14:51:44;13.32;;;11.00;;
62006;SDS011;47963;53.008;6.754;2022-11-20T14:54:12;13.90;;;11.55;;
62006;SDS011;47963;53.008;6.754;2022-11-20T14:56:41;12.70;;;10.60;;
62006;SDS011;47963;53.008;6.754;2022-11-20T14:59:07;14.60;;;12.18;;
62006;SDS011;47963;53.008;6.754;2022-11-20T15:01:34;16.50;;;13.18;;
62006;SDS011;47963;53.008;6.754;2022-11-20T15:04:08;16.00;;;13.30;;
62006;SDS011;47963;53.008;6.754;2022-11-20T15:06:36;15.38;;;13.40;;
62006;SDS011;47963;53.008;6.754;2022-11-20T15:09:03;15.35;;;13.43;;
62006;SDS011;47963;53.008;6.754;2022-11-20T15:11:33;15.98;;;13.68;;
62006;SDS011;47963;53.008;6.754;2022-11-20T15:14:02;17.20;;;13.98;;
62006;SDS011;47963;53.008;6.754;2022-11-20T15:16:31;31.50;;;21.08;;
62006;SDS011;47963;53.008;6.754;2022-11-20T15:18:57;26.83;;;19.33;;
62006;SDS011;47963;53.008;6.754;2022-11-20T15:21:22;17.15;;;14.18;;
62006;SDS011;47963;53.008;6.754;2022-11-20T15:23:48;16.80;;;14.25;;
62006;SDS011;47963;53.008;6.754;2022-11-20T15:26:15;16.77;;;14.65;;
62006;SDS011;47963;53.008;6.754;2022-11-20T15:28:48;16.40;;;14.40;;
62006;SDS011;47963;53.008;6.754;2022-11-20T15:31:16;17.95;;;14.70;;
62006;SDS011;47963;53.008;6.754;2022-11-20T15:33:43;17.52;;;15.38;;
62006;SDS011;47963;53.008;6.754;2022-11-20T15:36:09;16.45;;;14.32;;
62006;SDS011;47963;53.008;6.754;2022-11-20T15:38:36;16.50;;;14.40;;
62006;SDS011;47963;53.008;6.754;2022-11-20T15:41:02;16.60;;;13.90;;
62006;SDS011;47963;53.008;6.754;2022-11-20T15:43:28;17.38;;;15.02;;
62006;SDS011;47963;53.008;6.754;2022-11-20T15:45:55;19.08;;;15.68;;
62006;SDS011;47963;53.008;6.754;2022-11-20T15:48:34;17.67;;;15.77;;
62006;SDS011;47963;53.008;6.754;2022-11-20T15:51:06;18.88;;;16.08;;
62006;SDS011;47963;53.008;6.754;2022-11-20T15:53:54;17.33;;;14.88;;
62006;SDS011;47963;53.008;6.754;2022-11-20T15:56:20;16.95;;;14.85;;
62006;SDS011;47963;53.008;6.754;2022-11-20T15:58:46;16.20;;;14.02;;
62006;SDS011;47963;53.008;6.754;2022-11-20T16:01:13;16.95;;;14.63;;